Weather at City Heliport

Public forecast

Using degrees Fahrenheit for public forecast. Weather courtesy of forecast.io.

Closest aviation weather report (METAR) to City Heliport

Closest report is Oceana Naval Air Station, 4.6 nm (8.5 km) NNE. Retrieved 2020/10/30 15:56 UTC (49 minutes ago):

KNTU 301556Z 33016G25KT 10SM SCT021 BKN030 16/09 A2987 RMK AO2 PK WND 33031/1510 SLP118 T01560094

Closest aviation forecast (TAF) to City Heliport

Forecast is more than 12 hours old.

Closest forecast is Oceana Naval Air Station, 4.6 nm (8.5 km) NNE. Retrieved 2020-05-12 23:47 UTC (6 months ago):

TAF KNTU 112000Z 1123/1223 33010KT 9999 SCT080 QNH2990INS TEMPO 1123/1205 VRB06KT BKN080 FM121800 28006KT 9999 BKN050 QNH3017INS T08/1210Z T16/1219Z FN20051